Pagina principale
METAR-TAF:

METAR-TAF

Aeroporti :

New Orleans, Louisiana, Stati Uniti

Aeroporto Internazionale di New Orleans-Louis Armstrong

latitudine: 29-59-34N, longitudine: 090-15-03W, altezza: 1 m

Osservazione

Il bollettino è stato emesso 21 minuti fa, alle 00:53 UTC
Vento 6 kt da nord
Temperature 21°C
Umidità 64%
Pressione 1014 hPa
Visibilità: 16.1 km
Poco nuvoloso ad un'altezza di 25000 ft

METAR: KMSY 240053Z 35006KT 10SM FEW250 21/14 A2995 RMK AO2 SLP146 T02060144

Ora: 20:14 (01:14 UTC)

Previsione

Il bollettino è stato emesso 1 ora e 49 minuti fa, alle 23:25 UTC
Previsione valida dal 24 alle 00 UTC al 25 alle 06 UTC
Vento 7 kt da nord/nord-ovest
Visibilità: 10 km
Nubi sparse ad un'altezza di 6000 ft
Nubi sparse ad un'altezza di 25000 ft
A partire da 24 alle 0100 UTC
Vento 7 kt da ovest/nord-ovest
Visibilità: 10 km
Nubi sparse ad un'altezza di 8000 ft

TAF: KMSY 232325Z 2400/2506 34007KT P6SM SCT060 SCT250 FM240100 29007KT P6SM SCT080

Osservazioni e previsioni meteorologiche di più di 4000 aeroporti (messaggi METAR e TAF).

Le stazioni disponibili sono rappresentate dai dischi gialli e rossi sulla carta.

Puntare il mouse per vedere il nome della stazione.

Clicca sopra per visualizzare le osservazioni e previsioni meteorologiche.

Per cambiare la mappa : fare clic sui pulsanti verdi con una croce nera per ingrandire, il pulsante verde con un trattino per diminuire, o sulla freccia verde per le mappe adiacenti.


METAR-TAF: